Time;durP1;ratioP1;P1;durP2;ratioP2;P2;SDS_P1;SDS_P2;PMS_P1;PMS_P2;Temp;Humidity;BMP_temperature;BMP_pressure;BME280_temperature;BME280_humidity;BME280_pressure;Samples;Min_cycle;Max_cycle;Signal;HPM_P1;HPM_P2
2024/03/13 00:00:57;;;;;;;4.90;2.13;;;;;;;;;;2048946;29;20027;-52
2024/03/13 00:01:58;;;;;;;7.15;2.72;;;;;;;;;;2049104;29;20038;-55
2024/03/13 00:03:00;;;;;;;4.25;2.25;;;;;;;;;;2049003;28;20566;-56
2024/03/13 00:04:01;;;;;;;6.40;2.30;;;;;;;;;;2048376;28;20039;-54
2024/03/13 00:05:03;;;;;;;5.95;2.40;;;;;;;;;;2048035;29;20054;-52
2024/03/13 00:06:04;;;;;;;5.15;2.45;;;;;;;;;;2048907;29;20481;-48
2024/03/13 00:07:06;;;;;;;5.03;2.75;;;;;;;;;;2048339;29;20545;-53
2024/03/13 00:08:07;;;;;;;4.60;1.83;;;;;;;;;;2048661;29;20051;-45
2024/03/13 00:09:09;;;;;;;6.40;2.83;;;;;;;;;;2049239;28;20031;-47
2024/03/13 00:10:11;;;;;;;6.65;1.83;;;;;;;;;;2049398;28;20023;-46
2024/03/13 00:11:12;;;;;;;4.95;2.22;;;;;;;;;;2049025;29;20039;-46
2024/03/13 00:12:14;;;;;;;4.32;2.25;;;;;;;;;;2049309;29;20038;-46
2024/03/13 00:13:16;;;;;;;4.88;2.00;;;;;;;;;;2049481;29;20034;-46
2024/03/13 00:14:18;;;;;;;4.07;2.17;;;;;;;;;;2048717;29;20498;-46
2024/03/13 00:15:19;;;;;;;3.83;2.17;;;;;;;;;;2048436;29;20022;-46
2024/03/13 00:16:20;;;;;;;4.60;1.92;;;;;;;;;;2041074;29;20016;-46
2024/03/13 00:17:21;;;;;;;3.75;1.95;;;;;;;;;;2048695;28;20595;-45
2024/03/13 00:18:23;;;;;;;4.93;2.38;;;;;;;;;;2049447;29;20078;-45
2024/03/13 00:19:24;;;;;;;4.70;2.22;;;;;;;;;;2048867;29;20030;-45
2024/03/13 00:20:30;;;;;;;5.68;2.10;;;;;;;;;;2048244;29;20075;-47
2024/03/13 00:21:35;;;;;;;8.60;2.30;;;;;;;;;;2048231;29;20043;-45
2024/03/13 00:22:37;;;;;;;5.00;2.20;;;;;;;;;;2048777;29;20102;-45
2024/03/13 00:23:38;;;;;;;5.00;2.30;;;;;;;;;;2049311;29;20035;-45
2024/03/13 00:24:39;;;;;;;4.22;2.25;;;;;;;;;;2049163;29;20025;-44
2024/03/13 00:25:41;;;;;;;3.53;2.20;;;;;;;;;;2049315;29;20038;-53
2024/03/13 00:26:49;;;;;;;5.30;2.58;;;;;;;;;;2049200;29;20514;-53
2024/03/13 00:27:51;;;;;;;5.97;2.40;;;;;;;;;;2047299;28;20038;-53
2024/03/13 00:28:52;;;;;;;6.88;2.08;;;;;;;;;;2048197;28;20035;-51
2024/03/13 00:29:54;;;;;;;4.75;2.22;;;;;;;;;;2048805;29;20106;-54
2024/03/13 00:30:55;;;;;;;3.78;2.22;;;;;;;;;;2049170;29;20016;-53
2024/03/13 00:31:56;;;;;;;6.13;2.30;;;;;;;;;;2049226;29;20406;-52
2024/03/13 00:32:59;;;;;;;5.47;2.10;;;;;;;;;;2049178;29;20020;-53
2024/03/13 00:34:00;;;;;;;5.32;2.38;;;;;;;;;;2049070;28;20461;-53
2024/03/13 00:35:03;;;;;;;3.28;1.98;;;;;;;;;;2047319;28;20426;-55
2024/03/13 00:36:04;;;;;;;5.50;1.83;;;;;;;;;;2048435;29;20030;-55
2024/03/13 00:37:05;;;;;;;4.82;2.28;;;;;;;;;;2054567;28;20776;-51
2024/03/13 00:38:07;;;;;;;5.05;1.92;;;;;;;;;;2048724;29;20089;-53
2024/03/13 00:39:08;;;;;;;3.78;1.92;;;;;;;;;;2049286;29;20070;-55
2024/03/13 00:40:10;;;;;;;5.57;2.22;;;;;;;;;;2048710;29;20022;-55
2024/03/13 00:41:11;;;;;;;4.10;2.10;;;;;;;;;;2044807;29;20020;-54
2024/03/13 00:42:13;;;;;;;4.63;2.10;;;;;;;;;;2046174;29;20058;-50
2024/03/13 00:43:14;;;;;;;3.85;2.47;;;;;;;;;;2048698;29;20019;-53
2024/03/13 00:44:16;;;;;;;5.07;1.90;;;;;;;;;;2048963;29;20062;-53
2024/03/13 00:45:17;;;;;;;5.82;2.13;;;;;;;;;;2049106;29;20394;-51
2024/03/13 00:46:19;;;;;;;4.85;1.90;;;;;;;;;;2048232;29;20035;-53
2024/03/13 00:47:22;;;;;;;3.90;1.80;;;;;;;;;;2048645;29;20605;-52
2024/03/13 00:48:24;;;;;;;3.47;1.95;;;;;;;;;;2048780;28;20517;-51
2024/03/13 00:49:25;;;;;;;5.38;2.00;;;;;;;;;;2048583;29;20031;-54
2024/03/13 00:50:26;;;;;;;3.13;1.75;;;;;;;;;;2048567;29;20867;-53
2024/03/13 00:51:31;;;;;;;5.28;1.98;;;;;;;;;;2048952;29;20012;-55
2024/03/13 00:52:32;;;;;;;3.45;2.20;;;;;;;;;;2048320;29;20019;-52
2024/03/13 00:53:33;;;;;;;4.53;2.40;;;;;;;;;;2048552;29;20505;-51
2024/03/13 00:54:35;;;;;;;4.40;2.22;;;;;;;;;;2048747;29;20490;-52
2024/03/13 00:55:38;;;;;;;4.80;2.17;;;;;;;;;;2048643;28;20082;-50
2024/03/13 00:56:41;;;;;;;4.60;2.00;;;;;;;;;;2048127;29;20031;-51
2024/03/13 00:57:42;;;;;;;4.88;2.00;;;;;;;;;;2048401;29;20019;-51
2024/03/13 00:58:44;;;;;;;4.10;2.42;;;;;;;;;;2048920;29;20027;-49
2024/03/13 00:59:46;;;;;;;4.40;2.00;;;;;;;;;;2048939;28;20035;-52
2024/03/13 01:00:48;;;;;;;5.32;2.10;;;;;;;;;;2048976;28;20011;-49
2024/03/13 01:01:50;;;;;;;5.85;2.40;;;;;;;;;;2048134;29;20394;-50
2024/03/13 01:02:53;;;;;;;5.22;2.35;;;;;;;;;;2040491;29;20124;-49
2024/03/13 01:04:00;;;;;;;3.65;1.85;;;;;;;;;;2048064;28;20042;-50
2024/03/13 01:05:02;;;;;;;3.55;1.90;;;;;;;;;;2049115;28;20023;-51
2024/03/13 01:06:06;;;;;;;3.53;1.85;;;;;;;;;;2048605;29;20031;-51
2024/03/13 01:07:07;;;;;;;5.15;1.80;;;;;;;;;;2049061;28;20028;-49
2024/03/13 01:08:08;;;;;;;7.85;1.95;;;;;;;;;;2048499;28;20039;-48
2024/03/13 01:09:10;;;;;;;3.38;2.00;;;;;;;;;;2047829;29;20019;-49
2024/03/13 01:10:11;;;;;;;3.67;2.20;;;;;;;;;;2048284;29;20024;-50
2024/03/13 01:11:12;;;;;;;6.20;2.20;;;;;;;;;;2049124;29;20029;-49
2024/03/13 01:12:14;;;;;;;4.72;2.60;;;;;;;;;;2048931;29;20031;-49
2024/03/13 01:13:15;;;;;;;4.63;2.33;;;;;;;;;;2048844;28;20108;-50
2024/03/13 01:14:19;;;;;;;3.03;2.17;;;;;;;;;;2049021;29;20023;-49
2024/03/13 01:15:21;;;;;;;4.07;2.33;;;;;;;;;;2049040;28;20367;-49
2024/03/13 01:16:23;;;;;;;3.47;1.90;;;;;;;;;;2039787;29;20482;-49
2024/03/13 01:17:25;;;;;;;2.83;1.55;;;;;;;;;;2033058;29;20035;-49
2024/03/13 01:18:26;;;;;;;5.72;2.00;;;;;;;;;;2048269;29;20019;-49
2024/03/13 01:19:30;;;;;;;4.05;1.92;;;;;;;;;;2048362;29;20031;-50
2024/03/13 01:20:31;;;;;;;3.28;2.13;;;;;;;;;;2048207;29;20054;-50
2024/03/13 01:21:33;;;;;;;7.97;2.17;;;;;;;;;;2048895;29;20066;-50
2024/03/13 01:22:34;;;;;;;5.57;2.42;;;;;;;;;;2048956;29;20070;-51
2024/03/13 01:23:35;;;;;;;3.35;1.73;;;;;;;;;;2048995;29;20045;-50
2024/03/13 01:24:38;;;;;;;4.60;2.17;;;;;;;;;;2048055;28;20008;-54
2024/03/13 01:25:44;;;;;;;5.13;1.90;;;;;;;;;;2046360;28;20063;-48
2024/03/13 01:26:46;;;;;;;3.58;2.15;;;;;;;;;;2047427;29;20059;-49
2024/03/13 01:27:47;;;;;;;8.07;2.17;;;;;;;;;;2048690;28;20041;-50
2024/03/13 01:28:48;;;;;;;3.47;1.90;;;;;;;;;;2048844;29;20023;-49
2024/03/13 01:29:50;;;;;;;5.88;1.80;;;;;;;;;;2043997;28;20067;-53
2024/03/13 01:30:52;;;;;;;4.20;2.08;;;;;;;;;;2040904;29;20039;-55
2024/03/13 01:31:56;;;;;;;3.92;1.98;;;;;;;;;;2040782;29;20106;-53
2024/03/13 01:33:01;;;;;;;3.33;1.90;;;;;;;;;;2043604;29;20020;-52
2024/03/13 01:34:04;;;;;;;5.32;1.77;;;;;;;;;;2045055;29;20020;-51
2024/03/13 01:35:06;;;;;;;3.03;1.83;;;;;;;;;;2047336;29;20360;-47
2024/03/13 01:36:08;;;;;;;4.47;2.05;;;;;;;;;;2047992;28;20360;-47
2024/03/13 01:38:29;;;;;;;4.40;2.00;;;;;;;;;;2048978;29;20046;-46
2024/03/13 01:39:30;;;;;;;3.53;1.95;;;;;;;;;;2048052;29;20371;-47
2024/03/13 01:55:35;;;;;;;3.53;2.05;;;;;;;;;;2046418;29;20038;-45
2024/03/13 01:56:38;;;;;;;3.45;1.95;;;;;;;;;;2047524;29;20027;-45
2024/03/13 01:59:03;;;;;;;5.47;2.10;;;;;;;;;;2047377;29;20372;-46
2024/03/13 02:02:45;;;;;;;5.57;2.35;;;;;;;;;;2048742;29;20114;-46
2024/03/13 02:03:46;;;;;;;3.20;2.00;;;;;;;;;;2048284;28;20023;-45
2024/03/13 02:04:48;;;;;;;4.35;2.03;;;;;;;;;;2048082;29;20082;-46
2024/03/13 02:05:50;;;;;;;5.28;1.98;;;;;;;;;;2047700;29;20019;-45
2024/03/13 02:06:52;;;;;;;2.83;1.65;;;;;;;;;;2047636;29;20023;-46
2024/03/13 02:07:53;;;;;;;3.63;2.30;;;;;;;;;;2048834;28;20065;-46
2024/03/13 02:08:57;;;;;;;3.92;2.10;;;;;;;;;;2048679;29;20058;-45
2024/03/13 02:09:59;;;;;;;4.40;2.00;;;;;;;;;;2048664;28;20031;-46
2024/03/13 02:11:01;;;;;;;4.07;2.25;;;;;;;;;;2048702;28;20090;-46
2024/03/13 02:12:08;;;;;;;7.20;2.40;;;;;;;;;;2048617;29;20022;-46
2024/03/13 02:13:11;;;;;;;3.97;1.88;;;;;;;;;;2048716;29;20114;-45
2024/03/13 02:14:14;;;;;;;4.07;1.80;;;;;;;;;;2048781;29;20024;-46
2024/03/13 02:15:16;;;;;;;8.45;2.50;;;;;;;;;;2048644;29;20534;-45
2024/03/13 02:16:17;;;;;;;3.90;1.90;;;;;;;;;;2048763;29;20037;-46
2024/03/13 02:17:18;;;;;;;4.13;1.90;;;;;;;;;;2048139;29;20023;-46
2024/03/13 02:18:24;;;;;;;4.80;2.38;;;;;;;;;;2048625;29;20023;-46
2024/03/13 02:19:26;;;;;;;4.63;2.55;;;;;;;;;;2048800;29;20022;-45
2024/03/13 02:20:33;;;;;;;3.85;2.00;;;;;;;;;;2048695;28;20028;-46
2024/03/13 02:21:35;;;;;;;3.78;2.10;;;;;;;;;;2048742;28;20660;-46
2024/03/13 02:22:37;;;;;;;5.32;2.20;;;;;;;;;;2048808;28;20375;-45
2024/03/13 02:23:39;;;;;;;5.35;2.05;;;;;;;;;;2048090;29;20031;-46
2024/03/13 02:24:40;;;;;;;3.17;1.98;;;;;;;;;;2048005;29;20023;-45
2024/03/13 02:25:41;;;;;;;4.47;2.17;;;;;;;;;;2047984;28;20517;-46
2024/03/13 02:26:43;;;;;;;4.93;2.45;;;;;;;;;;2047957;28;20432;-45
2024/03/13 02:27:53;;;;;;;4.35;2.50;;;;;;;;;;2048429;29;20031;-46
2024/03/13 02:28:54;;;;;;;5.88;2.25;;;;;;;;;;2045245;29;20034;-47
2024/03/13 02:29:57;;;;;;;5.28;2.35;;;;;;;;;;2045974;29;20047;-46
2024/03/13 02:30:59;;;;;;;3.83;2.28;;;;;;;;;;2039541;29;20515;-46
2024/03/13 02:32:01;;;;;;;4.18;1.98;;;;;;;;;;2040082;29;20559;-45
2024/03/13 02:33:02;;;;;;;5.85;2.40;;;;;;;;;;2040600;29;20513;-51
2024/03/13 02:34:04;;;;;;;3.80;1.98;;;;;;;;;;2040636;29;20023;-46
2024/03/13 02:35:07;;;;;;;4.60;2.20;;;;;;;;;;2048003;29;20032;-45
2024/03/13 02:36:08;;;;;;;4.55;2.42;;;;;;;;;;2054329;28;20054;-46
2024/03/13 02:37:10;;;;;;;3.35;1.98;;;;;;;;;;2040349;29;20074;-45
2024/03/13 02:38:11;;;;;;;5.72;2.50;;;;;;;;;;2046186;29;20019;-45
2024/03/13 02:39:18;;;;;;;4.28;2.50;;;;;;;;;;2048623;29;20478;-46
2024/03/13 02:40:19;;;;;;;3.65;2.03;;;;;;;;;;2047851;29;20478;-47
2024/03/13 02:41:20;;;;;;;5.30;2.13;;;;;;;;;;2047739;29;20044;-46
2024/03/13 02:42:22;;;;;;;4.38;2.30;;;;;;;;;;2048401;29;20493;-47
2024/03/13 02:43:23;;;;;;;4.63;2.38;;;;;;;;;;2048541;28;20374;-46
2024/03/13 02:44:25;;;;;;;4.38;2.50;;;;;;;;;;2047979;28;20007;-46
2024/03/13 02:45:27;;;;;;;4.30;2.25;;;;;;;;;;2047263;29;20042;-47
2024/03/13 02:46:28;;;;;;;4.28;1.90;;;;;;;;;;2047915;29;20070;-46
2024/03/13 02:47:30;;;;;;;4.85;2.70;;;;;;;;;;2048517;29;20031;-46
2024/03/13 02:48:32;;;;;;;4.50;2.30;;;;;;;;;;2047649;29;20031;-47
2024/03/13 02:49:35;;;;;;;5.70;2.60;;;;;;;;;;2047871;29;20035;-50
2024/03/13 02:50:40;;;;;;;3.55;2.42;;;;;;;;;;2047307;28;20023;-52
2024/03/13 02:51:42;;;;;;;3.30;2.05;;;;;;;;;;2049418;29;20028;-53
2024/03/13 02:52:43;;;;;;;5.22;2.47;;;;;;;;;;2049081;29;20035;-52
2024/03/13 02:53:45;;;;;;;3.78;2.28;;;;;;;;;;2049036;29;20591;-50
2024/03/13 02:54:46;;;;;;;3.35;2.25;;;;;;;;;;2049518;29;20031;-49
2024/03/13 02:55:48;;;;;;;5.05;2.00;;;;;;;;;;2050021;29;20027;-50
2024/03/13 02:56:49;;;;;;;5.22;2.25;;;;;;;;;;2049834;29;20077;-53
2024/03/13 02:57:51;;;;;;;3.10;2.10;;;;;;;;;;2049931;29;20028;-50
2024/03/13 02:58:52;;;;;;;4.38;2.33;;;;;;;;;;2048934;29;20015;-52
2024/03/13 02:59:54;;;;;;;3.25;2.03;;;;;;;;;;2049077;29;20046;-53
2024/03/13 03:00:55;;;;;;;5.72;2.40;;;;;;;;;;2049700;28;20031;-52
2024/03/13 03:01:56;;;;;;;2.97;1.92;;;;;;;;;;2049684;29;20039;-47
2024/03/13 03:02:58;;;;;;;4.43;2.15;;;;;;;;;;2049837;29;20011;-49
2024/03/13 03:03:59;;;;;;;4.15;2.38;;;;;;;;;;2049765;28;20038;-49
2024/03/13 03:05:05;;;;;;;4.03;2.30;;;;;;;;;;2049819;29;20057;-50
2024/03/13 03:06:07;;;;;;;4.40;2.20;;;;;;;;;;2049791;29;20106;-48
2024/03/13 03:07:09;;;;;;;3.63;2.05;;;;;;;;;;2049683;29;20020;-50
2024/03/13 03:08:10;;;;;;;4.13;2.47;;;;;;;;;;2049133;29;20042;-49
2024/03/13 03:09:11;;;;;;;3.50;2.35;;;;;;;;;;2049179;29;20034;-46
2024/03/13 03:10:13;;;;;;;4.82;2.35;;;;;;;;;;2049653;28;20031;-46
2024/03/13 03:11:16;;;;;;;3.70;2.15;;;;;;;;;;2049687;29;20027;-46
2024/03/13 03:12:17;;;;;;;3.65;1.95;;;;;;;;;;2049147;28;20533;-46
2024/03/13 03:13:19;;;;;;;5.47;1.83;;;;;;;;;;2049546;28;20411;-48
2024/03/13 03:14:20;;;;;;;4.57;2.28;;;;;;;;;;2049853;29;20106;-46
2024/03/13 03:15:21;;;;;;;4.90;2.10;;;;;;;;;;2049465;29;20031;-46
2024/03/13 03:16:23;;;;;;;3.50;2.13;;;;;;;;;;2049288;29;20533;-45
2024/03/13 03:17:24;;;;;;;5.90;2.25;;;;;;;;;;2049103;29;20037;-46
2024/03/13 03:18:26;;;;;;;4.90;2.28;;;;;;;;;;2049747;29;20106;-46
2024/03/13 03:19:28;;;;;;;4.63;1.98;;;;;;;;;;2049840;28;20019;-46
2024/03/13 03:20:29;;;;;;;5.28;2.63;;;;;;;;;;2049742;28;20043;-47
2024/03/13 03:21:31;;;;;;;4.20;2.22;;;;;;;;;;2049064;29;20343;-46
2024/03/13 03:22:32;;;;;;;3.47;2.20;;;;;;;;;;2048968;29;20039;-46
2024/03/13 03:23:33;;;;;;;5.15;2.42;;;;;;;;;;2041416;29;20020;-45
2024/03/13 03:24:35;;;;;;;4.68;2.00;;;;;;;;;;2048881;29;20011;-48
2024/03/13 03:25:37;;;;;;;3.88;2.10;;;;;;;;;;2049497;29;20016;-46
2024/03/13 03:26:38;;;;;;;3.75;2.08;;;;;;;;;;2049700;28;20023;-46
2024/03/13 03:27:40;;;;;;;3.30;2.20;;;;;;;;;;2049752;28;20030;-46
2024/03/13 03:28:41;;;;;;;6.82;2.50;;;;;;;;;;2049535;29;20042;-46
2024/03/13 03:29:42;;;;;;;5.65;2.00;;;;;;;;;;2049736;29;20066;-45
2024/03/13 03:30:46;;;;;;;4.82;2.10;;;;;;;;;;2048939;29;20046;-45
2024/03/13 03:31:48;;;;;;;3.78;2.08;;;;;;;;;;2048893;29;20430;-46
2024/03/13 03:32:50;;;;;;;4.25;2.33;;;;;;;;;;2047451;29;20390;-45
2024/03/13 03:33:51;;;;;;;5.53;2.08;;;;;;;;;;2049058;28;20020;-46
2024/03/13 03:34:53;;;;;;;3.72;2.05;;;;;;;;;;2049792;28;20050;-46
2024/03/13 03:35:54;;;;;;;4.30;2.30;;;;;;;;;;2049318;29;20077;-45
2024/03/13 03:36:55;;;;;;;4.32;2.30;;;;;;;;;;2049552;29;20027;-45
2024/03/13 03:37:57;;;;;;;3.05;1.92;;;;;;;;;;2049273;29;20019;-45
2024/03/13 03:38:58;;;;;;;6.82;2.10;;;;;;;;;;2049497;28;20687;-44
2024/03/13 03:40:00;;;;;;;3.47;1.85;;;;;;;;;;2049586;29;20623;-46
2024/03/13 03:41:02;;;;;;;4.47;2.10;;;;;;;;;;2049403;28;20026;-45
2024/03/13 03:42:03;;;;;;;4.65;2.20;;;;;;;;;;2049461;28;20056;-47
2024/03/13 03:43:05;;;;;;;3.80;2.25;;;;;;;;;;2045326;28;20379;-45
2024/03/13 03:44:06;;;;;;;5.70;2.60;;;;;;;;;;2048689;28;20491;-46
2024/03/13 03:45:08;;;;;;;4.20;1.73;;;;;;;;;;2048793;29;20020;-44
2024/03/13 03:46:12;;;;;;;4.35;2.20;;;;;;;;;;2048541;29;20031;-46
2024/03/13 03:47:13;;;;;;;4.75;2.53;;;;;;;;;;2048602;29;20043;-46
2024/03/13 03:48:15;;;;;;;5.05;2.22;;;;;;;;;;2049442;29;20031;-46
2024/03/13 03:49:17;;;;;;;5.38;2.70;;;;;;;;;;2049227;28;20062;-45
2024/03/13 03:50:18;;;;;;;5.47;2.13;;;;;;;;;;2049382;29;20489;-48
2024/03/13 03:51:20;;;;;;;3.88;2.13;;;;;;;;;;2049119;29;20084;-47
2024/03/13 03:52:21;;;;;;;5.50;2.08;;;;;;;;;;2049620;28;20046;-47
2024/03/13 03:53:22;;;;;;;3.80;2.20;;;;;;;;;;2049416;29;20011;-48
2024/03/13 03:54:23;;;;;;;3.80;2.05;;;;;;;;;;2049103;29;20024;-47
2024/03/13 03:55:25;;;;;;;5.40;2.30;;;;;;;;;;2048707;29;20024;-47
2024/03/13 03:56:28;;;;;;;4.20;2.42;;;;;;;;;;2048140;29;20026;-47
2024/03/13 03:57:29;;;;;;;4.22;2.50;;;;;;;;;;2049130;29;20023;-47
2024/03/13 03:58:32;;;;;;;4.20;2.28;;;;;;;;;;2048614;29;20023;-47
2024/03/13 03:59:33;;;;;;;3.83;2.20;;;;;;;;;;2048784;29;20123;-47
2024/03/13 04:00:35;;;;;;;2.60;1.90;;;;;;;;;;2048934;28;20031;-48
2024/03/13 04:01:36;;;;;;;6.43;2.33;;;;;;;;;;2049539;28;20023;-47
2024/03/13 04:02:38;;;;;;;4.18;2.15;;;;;;;;;;2048886;28;20023;-47
2024/03/13 04:03:40;;;;;;;3.45;2.10;;;;;;;;;;2048860;28;20475;-47
2024/03/13 04:04:43;;;;;;;4.28;2.33;;;;;;;;;;2049494;28;20035;-48
2024/03/13 04:05:45;;;;;;;5.25;2.10;;;;;;;;;;2048609;28;20019;-47
2024/03/13 04:06:47;;;;;;;3.38;1.98;;;;;;;;;;2049264;28;20029;-47
2024/03/13 04:07:49;;;;;;;4.20;2.05;;;;;;;;;;2048366;29;20050;-47
2024/03/13 04:08:50;;;;;;;4.57;2.40;;;;;;;;;;2041340;29;20023;-47
2024/03/13 04:09:52;;;;;;;5.55;2.20;;;;;;;;;;2048058;29;20502;-48
2024/03/13 04:10:54;;;;;;;5.13;2.13;;;;;;;;;;2048759;28;20055;-47
2024/03/13 04:11:55;;;;;;;3.13;2.10;;;;;;;;;;2056414;28;20473;-47
2024/03/13 04:12:56;;;;;;;4.45;2.45;;;;;;;;;;2049369;29;20042;-47
2024/03/13 04:13:57;;;;;;;3.53;2.45;;;;;;;;;;2049521;29;20019;-47
2024/03/13 04:15:03;;;;;;;5.85;2.55;;;;;;;;;;2049520;29;20015;-48
2024/03/13 04:16:05;;;;;;;6.22;2.35;;;;;;;;;;2049540;28;20026;-46
2024/03/13 04:17:09;;;;;;;5.13;2.40;;;;;;;;;;2049172;29;20062;-47
2024/03/13 04:18:12;;;;;;;6.18;2.60;;;;;;;;;;2041348;29;20020;-47
2024/03/13 04:19:14;;;;;;;4.28;2.42;;;;;;;;;;2041394;29;20024;-47
2024/03/13 04:20:20;;;;;;;3.08;2.20;;;;;;;;;;2041359;29;20027;-49
2024/03/13 04:21:22;;;;;;;3.28;1.85;;;;;;;;;;2040852;29;20067;-47
2024/03/13 04:22:26;;;;;;;3.58;2.03;;;;;;;;;;2040893;29;20036;-47
2024/03/13 04:23:29;;;;;;;5.00;2.30;;;;;;;;;;2041244;29;20052;-48
2024/03/13 04:24:30;;;;;;;4.18;2.20;;;;;;;;;;2041249;29;20073;-47
2024/03/13 04:25:32;;;;;;;3.50;2.03;;;;;;;;;;2040919;29;20371;-47
2024/03/13 04:26:39;;;;;;;4.85;2.38;;;;;;;;;;2040918;29;20571;-47
2024/03/13 04:27:40;;;;;;;4.72;2.13;;;;;;;;;;2043218;29;20031;-47
2024/03/13 04:28:45;;;;;;;3.30;2.13;;;;;;;;;;2049005;29;20030;-47
2024/03/13 04:29:46;;;;;;;3.45;2.20;;;;;;;;;;2049205;29;20027;-47
2024/03/13 04:30:48;;;;;;;4.40;2.47;;;;;;;;;;2048784;29;20515;-47
2024/03/13 04:31:49;;;;;;;3.75;2.30;;;;;;;;;;2049177;29;20019;-47
2024/03/13 04:32:50;;;;;;;4.97;2.40;;;;;;;;;;2049314;29;20020;-48
2024/03/13 04:33:52;;;;;;;5.35;2.42;;;;;;;;;;2049177;29;20038;-47
2024/03/13 04:34:54;;;;;;;3.20;2.15;;;;;;;;;;2048740;28;20027;-49
2024/03/13 04:35:57;;;;;;;3.47;1.80;;;;;;;;;;2042151;29;20030;-50
2024/03/13 04:36:58;;;;;;;4.40;2.10;;;;;;;;;;2048421;28;20023;-47
2024/03/13 04:37:59;;;;;;;4.03;2.17;;;;;;;;;;2051904;28;20013;-47
2024/03/13 04:39:00;;;;;;;3.78;1.92;;;;;;;;;;2049105;29;20527;-47
2024/03/13 04:40:02;;;;;;;3.25;1.77;;;;;;;;;;2049287;29;20018;-47
2024/03/13 04:41:03;;;;;;;3.03;2.20;;;;;;;;;;2048430;29;20106;-47
2024/03/13 04:42:05;;;;;;;2.70;1.40;;;;;;;;;;2048612;29;20088;-47
2024/03/13 04:43:07;;;;;;;4.35;2.28;;;;;;;;;;2049223;29;20031;-47
2024/03/13 04:44:11;;;;;;;3.22;2.08;;;;;;;;;;2042063;29;20028;-48
2024/03/13 04:45:12;;;;;;;4.40;2.30;;;;;;;;;;2041533;29;20043;-47
2024/03/13 04:46:15;;;;;;;3.00;2.00;;;;;;;;;;2049236;29;20114;-47
2024/03/13 04:47:16;;;;;;;3.80;2.17;;;;;;;;;;2048679;28;20066;-48
2024/03/13 04:48:17;;;;;;;2.70;1.77;;;;;;;;;;2048815;29;20026;-47
2024/03/13 04:49:20;;;;;;;5.15;2.38;;;;;;;;;;2049155;29;20039;-48
2024/03/13 04:50:21;;;;;;;4.47;2.35;;;;;;;;;;2048156;29;20020;-46
2024/03/13 04:51:22;;;;;;;4.60;1.95;;;;;;;;;;2048156;29;20126;-47
2024/03/13 04:52:25;;;;;;;4.13;2.15;;;;;;;;;;2048988;28;20482;-47
2024/03/13 04:53:26;;;;;;;3.03;2.17;;;;;;;;;;2048275;29;20398;-47
2024/03/13 04:54:28;;;;;;;4.25;1.98;;;;;;;;;;2055355;28;20582;-46
2024/03/13 04:55:29;;;;;;;6.13;2.42;;;;;;;;;;2056332;28;20051;-48
2024/03/13 04:56:30;;;;;;;3.40;2.15;;;;;;;;;;2048985;29;20142;-47
2024/03/13 04:57:33;;;;;;;4.25;1.80;;;;;;;;;;2048904;29;20031;-46
2024/03/13 04:58:34;;;;;;;3.50;2.15;;;;;;;;;;2048530;28;20030;-47
2024/03/13 04:59:36;;;;;;;4.68;1.95;;;;;;;;;;2048607;28;20110;-48
2024/03/13 05:00:37;;;;;;;6.20;2.33;;;;;;;;;;2048643;28;20422;-47
2024/03/13 05:01:39;;;;;;;3.85;2.25;;;;;;;;;;2049036;29;20031;-47
2024/03/13 05:02:40;;;;;;;4.00;1.88;;;;;;;;;;2048930;29;20027;-46
2024/03/13 05:03:42;;;;;;;4.88;2.10;;;;;;;;;;2048125;29;20035;-46
2024/03/13 05:04:43;;;;;;;5.45;2.05;;;;;;;;;;2048534;29;20034;-46
2024/03/13 05:05:47;;;;;;;4.13;2.20;;;;;;;;;;2048042;29;20027;-47
2024/03/13 05:06:50;;;;;;;6.28;2.08;;;;;;;;;;2047720;29;20094;-45
2024/03/13 05:07:51;;;;;;;4.40;1.88;;;;;;;;;;2048761;29;20023;-47
2024/03/13 05:08:53;;;;;;;3.10;1.73;;;;;;;;;;2048758;29;20031;-46
2024/03/13 05:09:54;;;;;;;3.13;2.00;;;;;;;;;;2047540;29;20027;-47
2024/03/13 05:10:56;;;;;;;4.25;2.03;;;;;;;;;;2047878;29;20012;-46
2024/03/13 05:11:57;;;;;;;5.90;2.30;;;;;;;;;;2048662;28;20106;-46
2024/03/13 05:12:58;;;;;;;6.28;2.30;;;;;;;;;;2048971;29;20046;-46
2024/03/13 05:14:01;;;;;;;4.25;2.10;;;;;;;;;;2048340;28;20461;-47
2024/03/13 05:15:02;;;;;;;2.50;1.90;;;;;;;;;;2047917;29;20027;-46
2024/03/13 05:16:04;;;;;;;3.63;2.25;;;;;;;;;;2040307;29;20015;-46
2024/03/13 05:17:09;;;;;;;5.88;3.28;;;;;;;;;;2040379;29;20609;-46
2024/03/13 05:18:10;;;;;;;4.20;2.53;;;;;;;;;;2040996;29;20036;-46
2024/03/13 05:19:12;;;;;;;3.45;2.53;;;;;;;;;;2048443;28;20123;-46
2024/03/13 05:20:13;;;;;;;4.25;2.47;;;;;;;;;;2049105;29;20038;-46
2024/03/13 05:21:16;;;;;;;2.50;1.80;;;;;;;;;;2048456;29;20027;-46
2024/03/13 05:22:17;;;;;;;3.85;2.45;;;;;;;;;;2048367;29;20039;-46
2024/03/13 05:23:18;;;;;;;4.88;2.15;;;;;;;;;;2048637;29;20111;-47
2024/03/13 05:24:20;;;;;;;5.07;2.30;;;;;;;;;;2048949;29;20027;-47
2024/03/13 05:25:24;;;;;;;4.15;2.28;;;;;;;;;;2048847;29;20058;-47
2024/03/13 05:26:27;;;;;;;4.13;2.53;;;;;;;;;;2046843;28;20035;-47
2024/03/13 05:27:29;;;;;;;7.10;2.30;;;;;;;;;;2045612;28;20031;-46
2024/03/13 05:28:31;;;;;;;4.45;2.08;;;;;;;;;;2048063;28;20403;-48
2024/03/13 05:29:32;;;;;;;3.45;2.15;;;;;;;;;;2047282;29;20095;-46
2024/03/13 05:30:33;;;;;;;3.90;2.30;;;;;;;;;;2047209;29;20037;-46
2024/03/13 05:31:35;;;;;;;5.05;2.30;;;;;;;;;;2045707;28;20626;-53
2024/03/13 05:32:36;;;;;;;5.85;2.40;;;;;;;;;;2048413;28;20400;-52
2024/03/13 05:33:40;;;;;;;4.05;2.03;;;;;;;;;;2047286;28;20497;-50
2024/03/13 05:34:41;;;;;;;4.65;2.70;;;;;;;;;;2047365;28;20046;-51
2024/03/13 05:35:43;;;;;;;3.28;2.03;;;;;;;;;;2047175;29;20031;-51
2024/03/13 05:36:44;;;;;;;4.63;2.50;;;;;;;;;;2047857;28;20034;-50
2024/03/13 05:37:46;;;;;;;4.95;2.30;;;;;;;;;;2048501;28;20106;-53
2024/03/13 05:38:47;;;;;;;3.78;2.10;;;;;;;;;;2048055;28;20522;-53
2024/03/13 05:39:51;;;;;;;4.15;1.88;;;;;;;;;;2048543;29;20041;-53
2024/03/13 05:40:52;;;;;;;3.33;2.47;;;;;;;;;;2048470;28;20015;-53
2024/03/13 05:41:54;;;;;;;4.65;1.88;;;;;;;;;;2048564;28;20107;-53
2024/03/13 05:42:55;;;;;;;6.30;2.15;;;;;;;;;;2042541;28;20819;-55
2024/03/13 05:43:56;;;;;;;5.03;2.25;;;;;;;;;;2043259;28;20039;-50
2024/03/13 05:44:58;;;;;;;7.70;2.28;;;;;;;;;;2048239;28;20031;-46
2024/03/13 05:45:59;;;;;;;4.35;1.90;;;;;;;;;;2047920;29;20046;-52
2024/03/13 05:47:01;;;;;;;8.68;2.58;;;;;;;;;;2047911;29;20074;-54
2024/03/13 05:48:02;;;;;;;4.03;1.98;;;;;;;;;;2048282;29;20138;-54
2024/03/13 05:49:03;;;;;;;4.55;2.20;;;;;;;;;;2047594;29;20024;-52
2024/03/13 05:50:05;;;;;;;5.70;2.15;;;;;;;;;;2047641;29;20031;-53
2024/03/13 05:51:08;;;;;;;3.88;2.05;;;;;;;;;;2048129;29;20026;-51
2024/03/13 05:52:10;;;;;;;5.50;2.08;;;;;;;;;;2048488;28;20035;-52
2024/03/13 05:53:11;;;;;;;3.95;2.08;;;;;;;;;;2048350;28;20011;-51
2024/03/13 05:54:12;;;;;;;4.10;2.05;;;;;;;;;;2048451;28;20062;-53
2024/03/13 05:55:14;;;;;;;4.82;2.60;;;;;;;;;;2048066;28;20031;-53
2024/03/13 05:56:15;;;;;;;6.50;2.35;;;;;;;;;;2048528;28;20019;-54
2024/03/13 05:57:21;;;;;;;5.20;1.98;;;;;;;;;;2047783;29;20077;-53
2024/03/13 05:58:23;;;;;;;8.13;1.85;;;;;;;;;;2044074;29;20387;-53
2024/03/13 05:59:25;;;;;;;5.13;2.20;;;;;;;;;;2048073;28;20026;-52
2024/03/13 06:00:27;;;;;;;5.50;1.92;;;;;;;;;;2048384;28;20065;-52
2024/03/13 06:01:28;;;;;;;4.88;2.50;;;;;;;;;;2048360;29;20102;-51
2024/03/13 06:02:30;;;;;;;3.28;1.90;;;;;;;;;;2041208;29;20091;-49
2024/03/13 06:03:32;;;;;;;4.13;1.98;;;;;;;;;;2046973;28;20027;-53
2024/03/13 06:04:33;;;;;;;3.88;2.40;;;;;;;;;;2048560;28;20063;-53
2024/03/13 06:05:35;;;;;;;4.40;2.30;;;;;;;;;;2048040;28;20102;-50
2024/03/13 06:06:39;;;;;;;5.78;2.35;;;;;;;;;;2047732;29;20458;-52
2024/03/13 06:07:40;;;;;;;4.88;2.10;;;;;;;;;;2048213;28;20028;-52
2024/03/13 06:08:41;;;;;;;5.22;2.22;;;;;;;;;;2048139;28;20340;-53
2024/03/13 06:09:43;;;;;;;3.75;2.30;;;;;;;;;;2048468;29;20031;-53
2024/03/13 06:10:44;;;;;;;2.90;1.80;;;;;;;;;;2048486;28;20099;-52
2024/03/13 06:11:45;;;;;;;3.97;2.00;;;;;;;;;;2048561;28;20023;-52
2024/03/13 06:12:48;;;;;;;5.45;1.40;;;;;;;;;;2048602;29;20022;-52
2024/03/13 06:13:50;;;;;;;2.58;1.75;;;;;;;;;;2048093;29;20009;-53
2024/03/13 06:14:52;;;;;;;4.22;1.90;;;;;;;;;;2047739;28;20034;-52
2024/03/13 06:15:54;;;;;;;3.08;1.80;;;;;;;;;;2048450;28;20102;-52
2024/03/13 06:16:55;;;;;;;3.40;1.73;;;;;;;;;;2048311;28;20073;-52
2024/03/13 06:17:57;;;;;;;3.45;1.80;;;;;;;;;;2054117;28;20488;-52
2024/03/13 06:18:58;;;;;;;3.45;1.73;;;;;;;;;;2049084;28;20394;-48
2024/03/13 06:20:00;;;;;;;3.60;1.77;;;;;;;;;;2047819;29;20027;-50
2024/03/13 06:21:03;;;;;;;2.78;1.77;;;;;;;;;;2047850;29;20023;-50
2024/03/13 06:22:04;;;;;;;4.18;2.22;;;;;;;;;;2047628;29;20047;-51
2024/03/13 06:23:06;;;;;;;3.28;1.73;;;;;;;;;;2047696;29;20105;-51
2024/03/13 06:24:07;;;;;;;2.47;1.85;;;;;;;;;;2046931;28;20375;-51
2024/03/13 06:25:09;;;;;;;5.70;2.15;;;;;;;;;;2039850;29;20487;-52
2024/03/13 06:26:16;;;;;;;4.90;2.00;;;;;;;;;;2045120;28;20031;-51
2024/03/13 06:27:27;;;;;;;3.72;1.75;;;;;;;;;;2044622;29;20063;-50
2024/03/13 06:29:56;;;;;;;3.85;2.20;;;;;;;;;;2033714;29;20117;-50
2024/03/13 06:31:02;;;;;;;4.07;2.13;;;;;;;;;;2047505;28;20111;-53
2024/03/13 06:32:03;;;;;;;5.28;1.92;;;;;;;;;;2049726;28;20382;-50
2024/03/13 06:33:04;;;;;;;3.55;1.90;;;;;;;;;;2046116;28;20103;-51
2024/03/13 06:34:08;;;;;;;3.72;1.88;;;;;;;;;;2049039;28;20106;-52